sensor_id;sensor_type;location;lat;lon;timestamp;P1;durP1;ratioP1;P2;durP2;ratioP2
7613;SDS011;3848;42.016;23.098;2022-09-28T00:01:04;43.10;;;40.40;;
7613;SDS011;3848;42.016;23.098;2022-09-28T00:03:34;36.17;;;34.17;;
7613;SDS011;3848;42.016;23.098;2022-09-28T00:06:01;36.53;;;34.33;;
7613;SDS011;3848;42.016;23.098;2022-09-28T00:08:29;34.87;;;32.93;;
7613;SDS011;3848;42.016;23.098;2022-09-28T00:10:56;35.83;;;33.83;;
7613;SDS011;3848;42.016;23.098;2022-09-28T00:13:23;34.20;;;32.40;;
7613;SDS011;3848;42.016;23.098;2022-09-28T00:15:57;31.43;;;29.43;;
7613;SDS011;3848;42.016;23.098;2022-09-28T00:18:25;34.37;;;32.57;;
7613;SDS011;3848;42.016;23.098;2022-09-28T00:20:59;37.40;;;35.50;;
7613;SDS011;3848;42.016;23.098;2022-09-28T00:23:27;35.37;;;33.47;;
7613;SDS011;3848;42.016;23.098;2022-09-28T00:25:54;37.37;;;35.40;;
7613;SDS011;3848;42.016;23.098;2022-09-28T00:28:21;34.70;;;32.50;;
7613;SDS011;3848;42.016;23.098;2022-09-28T00:30:53;33.23;;;31.03;;
7613;SDS011;3848;42.016;23.098;2022-09-28T00:33:20;31.90;;;30.10;;
7613;SDS011;3848;42.016;23.098;2022-09-28T00:35:53;33.23;;;31.50;;
7613;SDS011;3848;42.016;23.098;2022-09-28T00:38:23;38.03;;;36.03;;
7613;SDS011;3848;42.016;23.098;2022-09-28T00:40:51;36.77;;;34.73;;
7613;SDS011;3848;42.016;23.098;2022-09-28T00:43:20;39.40;;;37.17;;
7613;SDS011;3848;42.016;23.098;2022-09-28T00:45:47;40.10;;;37.97;;
7613;SDS011;3848;42.016;23.098;2022-09-28T00:48:22;40.23;;;38.10;;
7613;SDS011;3848;42.016;23.098;2022-09-28T00:50:50;35.67;;;33.63;;
7613;SDS011;3848;42.016;23.098;2022-09-28T00:53:18;36.83;;;34.83;;
7613;SDS011;3848;42.016;23.098;2022-09-28T00:55:49;33.13;;;31.33;;
7613;SDS011;3848;42.016;23.098;2022-09-28T00:58:20;30.77;;;29.03;;
7613;SDS011;3848;42.016;23.098;2022-09-28T01:00:51;31.63;;;29.93;;
7613;SDS011;3848;42.016;23.098;2022-09-28T01:03:20;34.73;;;32.43;;
7613;SDS011;3848;42.016;23.098;2022-09-28T01:05:47;32.57;;;30.87;;
7613;SDS011;3848;42.016;23.098;2022-09-28T01:08:17;28.33;;;26.63;;
7613;SDS011;3848;42.016;23.098;2022-09-28T01:10:48;27.10;;;25.67;;
7613;SDS011;3848;42.016;23.098;2022-09-28T01:13:16;28.63;;;27.13;;
7613;SDS011;3848;42.016;23.098;2022-09-28T01:15:46;30.03;;;28.13;;
7613;SDS011;3848;42.016;23.098;2022-09-28T01:18:21;30.37;;;28.67;;
7613;SDS011;3848;42.016;23.098;2022-09-28T01:20:59;34.97;;;32.97;;
7613;SDS011;3848;42.016;23.098;2022-09-28T01:23:42;37.13;;;34.73;;
7613;SDS011;3848;42.016;23.098;2022-09-28T01:26:48;36.67;;;33.87;;
7613;SDS011;3848;42.016;23.098;2022-09-28T01:29:25;34.63;;;32.63;;
7613;SDS011;3848;42.016;23.098;2022-09-28T01:32:07;35.50;;;33.37;;
7613;SDS011;3848;42.016;23.098;2022-09-28T01:34:42;36.13;;;33.70;;
7613;SDS011;3848;42.016;23.098;2022-09-28T01:37:12;35.53;;;33.23;;
7613;SDS011;3848;42.016;23.098;2022-09-28T01:39:45;34.13;;;32.13;;
7613;SDS011;3848;42.016;23.098;2022-09-28T01:42:17;31.77;;;29.67;;
7613;SDS011;3848;42.016;23.098;2022-09-28T01:44:47;31.47;;;29.37;;
7613;SDS011;3848;42.016;23.098;2022-09-28T01:47:18;28.43;;;26.83;;
7613;SDS011;3848;42.016;23.098;2022-09-28T01:49:49;27.23;;;25.73;;
7613;SDS011;3848;42.016;23.098;2022-09-28T01:52:21;30.40;;;28.47;;
7613;SDS011;3848;42.016;23.098;2022-09-28T01:54:52;29.27;;;27.57;;
7613;SDS011;3848;42.016;23.098;2022-09-28T01:57:24;29.87;;;28.07;;
7613;SDS011;3848;42.016;23.098;2022-09-28T01:59:57;29.70;;;27.90;;
7613;SDS011;3848;42.016;23.098;2022-09-28T02:02:29;30.00;;;28.40;;
7613;SDS011;3848;42.016;23.098;2022-09-28T02:05:00;30.17;;;28.57;;
7613;SDS011;3848;42.016;23.098;2022-09-28T02:07:33;29.37;;;27.40;;
7613;SDS011;3848;42.016;23.098;2022-09-28T02:10:07;28.17;;;26.77;;
7613;SDS011;3848;42.016;23.098;2022-09-28T02:12:40;28.57;;;27.07;;
7613;SDS011;3848;42.016;23.098;2022-09-28T02:15:13;28.20;;;26.70;;
7613;SDS011;3848;42.016;23.098;2022-09-28T02:17:43;27.10;;;25.70;;
7613;SDS011;3848;42.016;23.098;2022-09-28T02:20:11;25.93;;;24.60;;
7613;SDS011;3848;42.016;23.098;2022-09-28T02:22:38;24.70;;;23.43;;
7613;SDS011;3848;42.016;23.098;2022-09-28T02:25:09;26.27;;;24.97;;
7613;SDS011;3848;42.016;23.098;2022-09-28T02:27:41;25.73;;;24.23;;
7613;SDS011;3848;42.016;23.098;2022-09-28T02:30:15;26.17;;;24.83;;
7613;SDS011;3848;42.016;23.098;2022-09-28T02:32:43;25.63;;;24.23;;
7613;SDS011;3848;42.016;23.098;2022-09-28T02:35:14;24.73;;;23.43;;
7613;SDS011;3848;42.016;23.098;2022-09-28T02:37:42;25.97;;;24.63;;
7613;SDS011;3848;42.016;23.098;2022-09-28T02:40:11;26.57;;;25.13;;
7613;SDS011;3848;42.016;23.098;2022-09-28T02:42:43;27.33;;;25.73;;
7613;SDS011;3848;42.016;23.098;2022-09-28T02:45:22;27.20;;;25.53;;
7613;SDS011;3848;42.016;23.098;2022-09-28T02:48:02;27.37;;;25.93;;
7613;SDS011;3848;42.016;23.098;2022-09-28T02:50:41;25.17;;;23.77;;
7613;SDS011;3848;42.016;23.098;2022-09-28T02:56:15;24.43;;;23.13;;
7613;SDS011;3848;42.016;23.098;2022-09-28T02:58:55;25.10;;;23.60;;
7613;SDS011;3848;42.016;23.098;2022-09-28T03:01:31;25.47;;;24.17;;
7613;SDS011;3848;42.016;23.098;2022-09-28T03:04:05;26.33;;;24.93;;
7613;SDS011;3848;42.016;23.098;2022-09-28T03:06:38;26.63;;;24.83;;
7613;SDS011;3848;42.016;23.098;2022-09-28T03:09:13;25.70;;;24.40;;
7613;SDS011;3848;42.016;23.098;2022-09-28T03:11:46;25.73;;;24.33;;
7613;SDS011;3848;42.016;23.098;2022-09-28T03:14:17;25.53;;;24.23;;
7613;SDS011;3848;42.016;23.098;2022-09-28T03:16:46;26.23;;;24.63;;
7613;SDS011;3848;42.016;23.098;2022-09-28T03:19:13;33.50;;;30.30;;
7613;SDS011;3848;42.016;23.098;2022-09-28T03:21:42;25.60;;;24.30;;
7613;SDS011;3848;42.016;23.098;2022-09-28T03:24:09;24.50;;;23.20;;
7613;SDS011;3848;42.016;23.098;2022-09-28T03:26:36;24.87;;;23.57;;
7613;SDS011;3848;42.016;23.098;2022-09-28T03:29:03;25.33;;;23.83;;
7613;SDS011;3848;42.016;23.098;2022-09-28T03:31:31;25.17;;;23.67;;
7613;SDS011;3848;42.016;23.098;2022-09-28T03:33:59;26.97;;;25.33;;
7613;SDS011;3848;42.016;23.098;2022-09-28T03:36:26;31.03;;;28.73;;
7613;SDS011;3848;42.016;23.098;2022-09-28T03:38:52;29.10;;;27.17;;
7613;SDS011;3848;42.016;23.098;2022-09-28T03:41:20;29.80;;;27.83;;
7613;SDS011;3848;42.016;23.098;2022-09-28T03:43:48;29.27;;;27.03;;
7613;SDS011;3848;42.016;23.098;2022-09-28T03:46:15;28.30;;;25.77;;
7613;SDS011;3848;42.016;23.098;2022-09-28T03:48:43;27.03;;;25.43;;
7613;SDS011;3848;42.016;23.098;2022-09-28T03:51:10;28.00;;;26.20;;
7613;SDS011;3848;42.016;23.098;2022-09-28T03:53:38;29.23;;;27.03;;
7613;SDS011;3848;42.016;23.098;2022-09-28T03:56:06;29.13;;;27.13;;
7613;SDS011;3848;42.016;23.098;2022-09-28T03:58:36;29.60;;;27.60;;
7613;SDS011;3848;42.016;23.098;2022-09-28T04:01:04;29.83;;;27.60;;
7613;SDS011;3848;42.016;23.098;2022-09-28T04:03:32;31.03;;;28.93;;
7613;SDS011;3848;42.016;23.098;2022-09-28T04:06:01;28.70;;;26.90;;
7613;SDS011;3848;42.016;23.098;2022-09-28T04:08:28;29.03;;;26.60;;
7613;SDS011;3848;42.016;23.098;2022-09-28T04:10:55;26.87;;;25.10;;
7613;SDS011;3848;42.016;23.098;2022-09-28T04:13:22;25.07;;;23.17;;
7613;SDS011;3848;42.016;23.098;2022-09-28T04:15:52;24.30;;;22.90;;
7613;SDS011;3848;42.016;23.098;2022-09-28T04:18:20;24.53;;;23.20;;
7613;SDS011;3848;42.016;23.098;2022-09-28T04:20:50;26.57;;;24.63;;
7613;SDS011;3848;42.016;23.098;2022-09-28T04:23:25;26.53;;;24.30;;
7613;SDS011;3848;42.016;23.098;2022-09-28T04:25:52;24.17;;;22.80;;
7613;SDS011;3848;42.016;23.098;2022-09-28T04:28:19;29.10;;;27.23;;
7613;SDS011;3848;42.016;23.098;2022-09-28T04:31:06;28.20;;;25.93;;
7613;SDS011;3848;42.016;23.098;2022-09-28T04:33:34;27.50;;;25.60;;
7613;SDS011;3848;42.016;23.098;2022-09-28T04:36:01;28.57;;;26.47;;
7613;SDS011;3848;42.016;23.098;2022-09-28T04:38:29;29.07;;;26.33;;
7613;SDS011;3848;42.016;23.098;2022-09-28T04:40:57;27.63;;;25.43;;
7613;SDS011;3848;42.016;23.098;2022-09-28T04:43:23;25.23;;;23.60;;
7613;SDS011;3848;42.016;23.098;2022-09-28T04:45:50;24.87;;;23.30;;
7613;SDS011;3848;42.016;23.098;2022-09-28T04:48:17;25.73;;;23.93;;
7613;SDS011;3848;42.016;23.098;2022-09-28T04:50:51;28.83;;;27.03;;
7613;SDS011;3848;42.016;23.098;2022-09-28T04:53:18;28.33;;;26.37;;
7613;SDS011;3848;42.016;23.098;2022-09-28T04:55:54;29.63;;;27.33;;
7613;SDS011;3848;42.016;23.098;2022-09-28T04:58:22;28.70;;;26.07;;
7613;SDS011;3848;42.016;23.098;2022-09-28T05:00:49;30.93;;;26.17;;
7613;SDS011;3848;42.016;23.098;2022-09-28T05:03:18;27.97;;;25.40;;
7613;SDS011;3848;42.016;23.098;2022-09-28T05:05:46;27.67;;;26.03;;
7613;SDS011;3848;42.016;23.098;2022-09-28T05:08:14;26.43;;;24.90;;
7613;SDS011;3848;42.016;23.098;2022-09-28T05:10:41;25.80;;;24.23;;
7613;SDS011;3848;42.016;23.098;2022-09-28T05:13:09;23.33;;;21.90;;
7613;SDS011;3848;42.016;23.098;2022-09-28T05:15:39;24.27;;;22.70;;
7613;SDS011;3848;42.016;23.098;2022-09-28T05:18:07;24.90;;;22.63;;
7613;SDS011;3848;42.016;23.098;2022-09-28T05:20:38;27.40;;;25.20;;
7613;SDS011;3848;42.016;23.098;2022-09-28T05:23:07;27.07;;;24.63;;
7613;SDS011;3848;42.016;23.098;2022-09-28T05:25:35;25.07;;;23.07;;
7613;SDS011;3848;42.016;23.098;2022-09-28T05:28:02;26.37;;;24.47;;
7613;SDS011;3848;42.016;23.098;2022-09-28T05:30:30;26.77;;;24.87;;
7613;SDS011;3848;42.016;23.098;2022-09-28T05:32:57;27.73;;;25.90;;
7613;SDS011;3848;42.016;23.098;2022-09-28T05:35:24;25.53;;;23.43;;
7613;SDS011;3848;42.016;23.098;2022-09-28T05:37:51;30.90;;;27.60;;
7613;SDS011;3848;42.016;23.098;2022-09-28T05:40:19;26.97;;;24.60;;
7613;SDS011;3848;42.016;23.098;2022-09-28T05:42:46;27.80;;;25.60;;
7613;SDS011;3848;42.016;23.098;2022-09-28T05:45:13;26.80;;;24.70;;
7613;SDS011;3848;42.016;23.098;2022-09-28T05:47:42;29.40;;;27.07;;
7613;SDS011;3848;42.016;23.098;2022-09-28T05:50:10;29.83;;;27.37;;
7613;SDS011;3848;42.016;23.098;2022-09-28T05:52:40;30.57;;;28.10;;
7613;SDS011;3848;42.016;23.098;2022-09-28T05:55:07;30.40;;;27.93;;
7613;SDS011;3848;42.016;23.098;2022-09-28T05:57:35;27.83;;;25.60;;
7613;SDS011;3848;42.016;23.098;2022-09-28T06:00:03;30.93;;;27.57;;
7613;SDS011;3848;42.016;23.098;2022-09-28T06:05:23;28.63;;;26.43;;
7613;SDS011;3848;42.016;23.098;2022-09-28T06:07:50;28.47;;;26.23;;
7613;SDS011;3848;42.016;23.098;2022-09-28T06:10:17;26.93;;;24.60;;
7613;SDS011;3848;42.016;23.098;2022-09-28T06:12:44;27.07;;;24.70;;
7613;SDS011;3848;42.016;23.098;2022-09-28T06:15:12;30.33;;;27.50;;
7613;SDS011;3848;42.016;23.098;2022-09-28T06:17:39;26.77;;;24.67;;
7613;SDS011;3848;42.016;23.098;2022-09-28T06:20:09;28.50;;;26.43;;
7613;SDS011;3848;42.016;23.098;2022-09-28T06:22:37;29.23;;;26.63;;
7613;SDS011;3848;42.016;23.098;2022-09-28T06:25:04;29.23;;;26.70;;
7613;SDS011;3848;42.016;23.098;2022-09-28T06:27:32;28.93;;;26.50;;
7613;SDS011;3848;42.016;23.098;2022-09-28T06:30:00;29.43;;;27.17;;
7613;SDS011;3848;42.016;23.098;2022-09-28T06:32:28;32.73;;;29.90;;
7613;SDS011;3848;42.016;23.098;2022-09-28T06:34:55;28.63;;;26.23;;
7613;SDS011;3848;42.016;23.098;2022-09-28T06:37:23;28.70;;;26.47;;
7613;SDS011;3848;42.016;23.098;2022-09-28T06:39:56;31.27;;;28.70;;
7613;SDS011;3848;42.016;23.098;2022-09-28T06:42:22;29.83;;;27.30;;
7613;SDS011;3848;42.016;23.098;2022-09-28T06:44:49;30.47;;;28.10;;
7613;SDS011;3848;42.016;23.098;2022-09-28T06:47:16;30.30;;;28.07;;
7613;SDS011;3848;42.016;23.098;2022-09-28T06:49:43;30.17;;;28.00;;
7613;SDS011;3848;42.016;23.098;2022-09-28T06:52:14;29.47;;;27.53;;
7613;SDS011;3848;42.016;23.098;2022-09-28T06:54:44;31.13;;;28.67;;
7613;SDS011;3848;42.016;23.098;2022-09-28T06:57:13;30.23;;;27.67;;
7613;SDS011;3848;42.016;23.098;2022-09-28T06:59:40;29.83;;;27.33;;
7613;SDS011;3848;42.016;23.098;2022-09-28T07:02:07;26.27;;;24.13;;
7613;SDS011;3848;42.016;23.098;2022-09-28T07:04:35;24.07;;;22.17;;
7613;SDS011;3848;42.016;23.098;2022-09-28T07:07:06;23.73;;;21.90;;
7613;SDS011;3848;42.016;23.098;2022-09-28T07:09:33;22.93;;;21.23;;
7613;SDS011;3848;42.016;23.098;2022-09-28T07:12:02;23.07;;;21.37;;
7613;SDS011;3848;42.016;23.098;2022-09-28T07:14:29;22.67;;;21.03;;
7613;SDS011;3848;42.016;23.098;2022-09-28T07:17:00;21.77;;;20.37;;
7613;SDS011;3848;42.016;23.098;2022-09-28T07:19:27;21.20;;;19.73;;
7613;SDS011;3848;42.016;23.098;2022-09-28T07:21:57;24.37;;;22.27;;
7613;SDS011;3848;42.016;23.098;2022-09-28T07:24:23;22.97;;;21.27;;
7613;SDS011;3848;42.016;23.098;2022-09-28T07:26:50;22.07;;;20.57;;
7613;SDS011;3848;42.016;23.098;2022-09-28T07:29:21;23.43;;;21.80;;
7613;SDS011;3848;42.016;23.098;2022-09-28T07:31:47;31.93;;;29.13;;
7613;SDS011;3848;42.016;23.098;2022-09-28T07:34:14;33.87;;;31.53;;
7613;SDS011;3848;42.016;23.098;2022-09-28T07:36:42;39.03;;;36.50;;
7613;SDS011;3848;42.016;23.098;2022-09-28T07:39:09;42.80;;;40.00;;
7613;SDS011;3848;42.016;23.098;2022-09-28T07:41:36;42.50;;;39.97;;
7613;SDS011;3848;42.016;23.098;2022-09-28T07:44:03;41.53;;;39.30;;
7613;SDS011;3848;42.016;23.098;2022-09-28T07:46:33;38.90;;;36.03;;
7613;SDS011;3848;42.016;23.098;2022-09-28T07:49:01;42.00;;;38.90;;
7613;SDS011;3848;42.016;23.098;2022-09-28T07:51:29;38.20;;;35.80;;
7613;SDS011;3848;42.016;23.098;2022-09-28T07:53:56;33.67;;;31.70;;
7613;SDS011;3848;42.016;23.098;2022-09-28T07:56:23;31.37;;;29.57;;
7613;SDS011;3848;42.016;23.098;2022-09-28T07:58:50;32.50;;;30.40;;
7613;SDS011;3848;42.016;23.098;2022-09-28T08:01:17;33.97;;;31.67;;
7613;SDS011;3848;42.016;23.098;2022-09-28T08:03:45;34.03;;;31.63;;
7613;SDS011;3848;42.016;23.098;2022-09-28T08:06:15;41.27;;;37.97;;
7613;SDS011;3848;42.016;23.098;2022-09-28T08:08:42;43.43;;;40.70;;
7613;SDS011;3848;42.016;23.098;2022-09-28T08:11:10;49.53;;;46.33;;
7613;SDS011;3848;42.016;23.098;2022-09-28T08:13:38;43.37;;;40.63;;
7613;SDS011;3848;42.016;23.098;2022-09-28T08:16:05;46.20;;;43.53;;
7613;SDS011;3848;42.016;23.098;2022-09-28T08:18:33;49.00;;;46.27;;
7613;SDS011;3848;42.016;23.098;2022-09-28T08:21:02;53.23;;;50.10;;
7613;SDS011;3848;42.016;23.098;2022-09-28T08:23:57;55.60;;;52.43;;
7613;SDS011;3848;42.016;23.098;2022-09-28T08:26:24;57.70;;;54.57;;
7613;SDS011;3848;42.016;23.098;2022-09-28T08:28:50;57.07;;;53.73;;
7613;SDS011;3848;42.016;23.098;2022-09-28T08:31:17;56.67;;;53.47;;
7613;SDS011;3848;42.016;23.098;2022-09-28T08:33:44;48.40;;;45.80;;
7613;SDS011;3848;42.016;23.098;2022-09-28T08:36:13;43.20;;;40.80;;
7613;SDS011;3848;42.016;23.098;2022-09-28T08:38:41;48.60;;;45.67;;
7613;SDS011;3848;42.016;23.098;2022-09-28T08:41:11;52.93;;;49.77;;
7613;SDS011;3848;42.016;23.098;2022-09-28T08:43:48;55.73;;;52.47;;
7613;SDS011;3848;42.016;23.098;2022-09-28T08:46:24;44.47;;;41.90;;
7613;SDS011;3848;42.016;23.098;2022-09-28T08:48:56;50.90;;;48.03;;
7613;SDS011;3848;42.016;23.098;2022-09-28T08:51:30;46.93;;;44.40;;
7613;SDS011;3848;42.016;23.098;2022-09-28T08:54:05;41.77;;;39.20;;
7613;SDS011;3848;42.016;23.098;2022-09-28T08:56:40;38.83;;;36.53;;
7613;SDS011;3848;42.016;23.098;2022-09-28T08:59:13;36.13;;;34.13;;
7613;SDS011;3848;42.016;23.098;2022-09-28T09:01:46;38.37;;;35.97;;
7613;SDS011;3848;42.016;23.098;2022-09-28T09:04:16;38.57;;;36.17;;
7613;SDS011;3848;42.016;23.098;2022-09-28T09:06:49;40.00;;;37.57;;
7613;SDS011;3848;42.016;23.098;2022-09-28T09:09:45;46.40;;;43.93;;
7613;SDS011;3848;42.016;23.098;2022-09-28T09:12:21;53.40;;;50.37;;
7613;SDS011;3848;42.016;23.098;2022-09-28T09:15:01;41.17;;;39.07;;
7613;SDS011;3848;42.016;23.098;2022-09-28T09:17:41;42.60;;;40.40;;
7613;SDS011;3848;42.016;23.098;2022-09-28T09:20:16;46.63;;;44.27;;
7613;SDS011;3848;42.016;23.098;2022-09-28T09:22:50;46.30;;;43.67;;
7613;SDS011;3848;42.016;23.098;2022-09-28T09:25:27;50.47;;;47.87;;
7613;SDS011;3848;42.016;23.098;2022-09-28T09:31:01;39.23;;;37.23;;
7613;SDS011;3848;42.016;23.098;2022-09-28T09:33:46;42.50;;;40.30;;
7613;SDS011;3848;42.016;23.098;2022-09-28T09:36:26;32.40;;;30.50;;
7613;SDS011;3848;42.016;23.098;2022-09-28T09:39:04;30.90;;;29.27;;
7613;SDS011;3848;42.016;23.098;2022-09-28T09:41:48;35.93;;;33.97;;
7613;SDS011;3848;42.016;23.098;2022-09-28T09:44:37;35.57;;;33.63;;
7613;SDS011;3848;42.016;23.098;2022-09-28T09:47:17;33.87;;;32.07;;
7613;SDS011;3848;42.016;23.098;2022-09-28T09:49:49;36.90;;;34.80;;
7613;SDS011;3848;42.016;23.098;2022-09-28T09:52:21;27.80;;;26.30;;
7613;SDS011;3848;42.016;23.098;2022-09-28T09:54:54;26.37;;;24.93;;
7613;SDS011;3848;42.016;23.098;2022-09-28T09:57:26;26.57;;;25.07;;
7613;SDS011;3848;42.016;23.098;2022-09-28T09:59:57;28.07;;;26.57;;
7613;SDS011;3848;42.016;23.098;2022-09-28T10:02:27;26.50;;;25.17;;
7613;SDS011;3848;42.016;23.098;2022-09-28T10:05:01;28.43;;;26.63;;
7613;SDS011;3848;42.016;23.098;2022-09-28T10:07:36;32.97;;;30.73;;
7613;SDS011;3848;42.016;23.098;2022-09-28T10:10:11;26.57;;;25.17;;
7613;SDS011;3848;42.016;23.098;2022-09-28T10:12:45;25.70;;;24.30;;
7613;SDS011;3848;42.016;23.098;2022-09-28T10:15:14;26.60;;;25.20;;
7613;SDS011;3848;42.016;23.098;2022-09-28T10:17:45;30.60;;;28.90;;
7613;SDS011;3848;42.016;23.098;2022-09-28T10:20:14;28.73;;;27.20;;
7613;SDS011;3848;42.016;23.098;2022-09-28T10:22:44;27.97;;;26.23;;
7613;SDS011;3848;42.016;23.098;2022-09-28T10:25:13;33.90;;;31.83;;
7613;SDS011;3848;42.016;23.098;2022-09-28T10:27:42;29.23;;;27.63;;
7613;SDS011;3848;42.016;23.098;2022-09-28T10:30:12;31.80;;;30.00;;
7613;SDS011;3848;42.016;23.098;2022-09-28T10:32:42;30.63;;;28.87;;
7613;SDS011;3848;42.016;23.098;2022-09-28T10:35:12;31.03;;;29.40;;
7613;SDS011;3848;42.016;23.098;2022-09-28T10:37:47;30.80;;;29.20;;
7613;SDS011;3848;42.016;23.098;2022-09-28T10:40:26;30.47;;;28.80;;
7613;SDS011;3848;42.016;23.098;2022-09-28T10:42:59;40.07;;;37.80;;
7613;SDS011;3848;42.016;23.098;2022-09-28T10:45:28;46.60;;;44.10;;
7613;SDS011;3848;42.016;23.098;2022-09-28T10:48:00;49.27;;;46.67;;
7613;SDS011;3848;42.016;23.098;2022-09-28T10:50:31;48.80;;;46.33;;
7613;SDS011;3848;42.016;23.098;2022-09-28T10:53:09;47.70;;;45.10;;
7613;SDS011;3848;42.016;23.098;2022-09-28T10:55:38;36.40;;;34.60;;
7613;SDS011;3848;42.016;23.098;2022-09-28T10:58:23;31.67;;;30.00;;
7613;SDS011;3848;42.016;23.098;2022-09-28T11:00:51;33.33;;;31.53;;
7613;SDS011;3848;42.016;23.098;2022-09-28T11:03:25;48.63;;;45.87;;
7613;SDS011;3848;42.016;23.098;2022-09-28T11:05:57;50.10;;;47.50;;
7613;SDS011;3848;42.016;23.098;2022-09-28T11:08:28;33.93;;;32.27;;
7613;SDS011;3848;42.016;23.098;2022-09-28T11:11:06;46.73;;;44.40;;
7613;SDS011;3848;42.016;23.098;2022-09-28T11:13:44;41.93;;;39.67;;
7613;SDS011;3848;42.016;23.098;2022-09-28T11:16:22;45.00;;;42.60;;
7613;SDS011;3848;42.016;23.098;2022-09-28T11:18:55;37.27;;;35.27;;
7613;SDS011;3848;42.016;23.098;2022-09-28T11:21:24;27.10;;;25.70;;
7613;SDS011;3848;42.016;23.098;2022-09-28T11:23:58;26.87;;;25.47;;
7613;SDS011;3848;42.016;23.098;2022-09-28T11:26:41;28.63;;;27.07;;
7613;SDS011;3848;42.016;23.098;2022-09-28T11:29:19;35.13;;;33.33;;
7613;SDS011;3848;42.016;23.098;2022-09-28T11:31:51;42.13;;;40.03;;
7613;SDS011;3848;42.016;23.098;2022-09-28T11:34:22;54.83;;;51.97;;
7613;SDS011;3848;42.016;23.098;2022-09-28T11:39:50;47.50;;;44.70;;
7613;SDS011;3848;42.016;23.098;2022-09-28T11:42:27;38.70;;;36.70;;
7613;SDS011;3848;42.016;23.098;2022-09-28T11:45:09;38.87;;;36.87;;
7613;SDS011;3848;42.016;23.098;2022-09-28T11:47:53;44.13;;;41.90;;
7613;SDS011;3848;42.016;23.098;2022-09-28T11:50:25;48.40;;;45.80;;
7613;SDS011;3848;42.016;23.098;2022-09-28T11:53:00;47.20;;;44.80;;
7613;SDS011;3848;42.016;23.098;2022-09-28T11:55:37;46.07;;;43.57;;
7613;SDS011;3848;42.016;23.098;2022-09-28T11:58:10;53.37;;;50.57;;
7613;SDS011;3848;42.016;23.098;2022-09-28T12:00:43;37.83;;;35.83;;
7613;SDS011;3848;42.016;23.098;2022-09-28T12:03:22;47.23;;;44.80;;
7613;SDS011;3848;42.016;23.098;2022-09-28T12:05:56;35.17;;;33.37;;
7613;SDS011;3848;42.016;23.098;2022-09-28T12:08:26;30.80;;;29.20;;
7613;SDS011;3848;42.016;23.098;2022-09-28T12:10:57;33.70;;;32.00;;
7613;SDS011;3848;42.016;23.098;2022-09-28T12:13:31;51.23;;;48.63;;
7613;SDS011;3848;42.016;23.098;2022-09-28T12:16:00;46.00;;;43.60;;
7613;SDS011;3848;42.016;23.098;2022-09-28T12:18:32;40.40;;;38.33;;
7613;SDS011;3848;42.016;23.098;2022-09-28T12:21:13;37.33;;;35.33;;
7613;SDS011;3848;42.016;23.098;2022-09-28T12:23:59;34.33;;;32.40;;
7613;SDS011;3848;42.016;23.098;2022-09-28T12:26:32;36.20;;;34.27;;
7613;SDS011;3848;42.016;23.098;2022-09-28T12:29:09;37.67;;;35.63;;
7613;SDS011;3848;42.016;23.098;2022-09-28T12:31:42;34.57;;;32.67;;
7613;SDS011;3848;42.016;23.098;2022-09-28T12:34:19;34.50;;;32.70;;
7613;SDS011;3848;42.016;23.098;2022-09-28T12:36:48;36.70;;;34.70;;
7613;SDS011;3848;42.016;23.098;2022-09-28T12:39:31;36.23;;;34.43;;
7613;SDS011;3848;42.016;23.098;2022-09-28T12:42:16;41.60;;;39.30;;
7613;SDS011;3848;42.016;23.098;2022-09-28T12:45:10;43.30;;;41.10;;
7613;SDS011;3848;42.016;23.098;2022-09-28T12:50:47;52.43;;;49.73;;
7613;SDS011;3848;42.016;23.098;2022-09-28T12:53:31;53.20;;;50.50;;
7613;SDS011;3848;42.016;23.098;2022-09-28T12:56:21;37.77;;;35.87;;
7613;SDS011;3848;42.016;23.098;2022-09-28T12:58:58;38.03;;;36.13;;
7613;SDS011;3848;42.016;23.098;2022-09-28T13:01:41;46.00;;;43.60;;
7613;SDS011;3848;42.016;23.098;2022-09-28T13:04:25;52.53;;;49.83;;
7613;SDS011;3848;42.016;23.098;2022-09-28T13:07:16;52.67;;;49.87;;
7613;SDS011;3848;42.016;23.098;2022-09-28T13:09:55;40.73;;;38.70;;
7613;SDS011;3848;42.016;23.098;2022-09-28T13:12:40;33.80;;;32.00;;
7613;SDS011;3848;42.016;23.098;2022-09-28T13:15:26;31.37;;;29.77;;
7613;SDS011;3848;42.016;23.098;2022-09-28T13:18:06;32.43;;;30.77;;
7613;SDS011;3848;42.016;23.098;2022-09-28T13:20:43;35.10;;;33.10;;
7613;SDS011;3848;42.016;23.098;2022-09-28T13:23:27;30.87;;;29.17;;
7613;SDS011;3848;42.016;23.098;2022-09-28T13:26:06;29.03;;;27.47;;
7613;SDS011;3848;42.016;23.098;2022-09-28T13:28:40;24.60;;;23.30;;
7613;SDS011;3848;42.016;23.098;2022-09-28T13:31:09;24.57;;;23.07;;
7613;SDS011;3848;42.016;23.098;2022-09-28T13:33:39;27.63;;;26.23;;
7613;SDS011;3848;42.016;23.098;2022-09-28T13:39:13;27.77;;;26.17;;
7613;SDS011;3848;42.016;23.098;2022-09-28T13:42:04;26.53;;;25.03;;
7613;SDS011;3848;42.016;23.098;2022-09-28T13:44:46;23.97;;;22.77;;
7613;SDS011;3848;42.016;23.098;2022-09-28T13:47:45;25.10;;;23.87;;
7613;SDS011;3848;42.016;23.098;2022-09-28T13:50:28;28.60;;;26.90;;
7613;SDS011;3848;42.016;23.098;2022-09-28T13:53:14;31.33;;;29.73;;
7613;SDS011;3848;42.016;23.098;2022-09-28T13:55:55;29.63;;;28.03;;
7613;SDS011;3848;42.016;23.098;2022-09-28T13:58:27;26.70;;;25.40;;
7613;SDS011;3848;42.016;23.098;2022-09-28T14:00:57;26.30;;;24.90;;
7613;SDS011;3848;42.016;23.098;2022-09-28T14:03:40;25.50;;;24.20;;
7613;SDS011;3848;42.016;23.098;2022-09-28T14:09:18;23.23;;;22.03;;
7613;SDS011;3848;42.016;23.098;2022-09-28T14:12:14;21.43;;;20.33;;
7613;SDS011;3848;42.016;23.098;2022-09-28T14:14:55;20.10;;;18.90;;
7613;SDS011;3848;42.016;23.098;2022-09-28T14:17:45;21.33;;;19.83;;
7613;SDS011;3848;42.016;23.098;2022-09-28T14:20:23;21.10;;;20.00;;
7613;SDS011;3848;42.016;23.098;2022-09-28T14:22:58;29.77;;;28.20;;
7613;SDS011;3848;42.016;23.098;2022-09-28T14:26:04;31.67;;;29.83;;
7613;SDS011;3848;42.016;23.098;2022-09-28T14:28:55;36.77;;;34.87;;
7613;SDS011;3848;42.016;23.098;2022-09-28T14:31:31;38.10;;;36.20;;
7613;SDS011;3848;42.016;23.098;2022-09-28T14:33:59;40.10;;;38.00;;
7613;SDS011;3848;42.016;23.098;2022-09-28T14:36:29;36.13;;;34.20;;
7613;SDS011;3848;42.016;23.098;2022-09-28T14:39:18;30.40;;;28.90;;
7613;SDS011;3848;42.016;23.098;2022-09-28T14:42:09;29.57;;;27.70;;
7613;SDS011;3848;42.016;23.098;2022-09-28T14:50:39;19.23;;;18.23;;
7613;SDS011;3848;42.016;23.098;2022-09-28T14:53:09;17.73;;;16.87;;
7613;SDS011;3848;42.016;23.098;2022-09-28T14:55:40;19.03;;;17.83;;
7613;SDS011;3848;42.016;23.098;2022-09-28T14:58:15;17.83;;;16.83;;
7613;SDS011;3848;42.016;23.098;2022-09-28T15:00:50;17.80;;;16.80;;
7613;SDS011;3848;42.016;23.098;2022-09-28T15:03:23;18.80;;;17.60;;
7613;SDS011;3848;42.016;23.098;2022-09-28T15:05:51;17.60;;;16.70;;
7613;SDS011;3848;42.016;23.098;2022-09-28T15:08:18;18.50;;;17.47;;
7613;SDS011;3848;42.016;23.098;2022-09-28T15:10:46;18.40;;;17.40;;
7613;SDS011;3848;42.016;23.098;2022-09-28T15:13:16;19.07;;;18.10;;
7613;SDS011;3848;42.016;23.098;2022-09-28T15:15:47;18.83;;;17.83;;
7613;SDS011;3848;42.016;23.098;2022-09-28T15:18:26;20.67;;;19.63;;
7613;SDS011;3848;42.016;23.098;2022-09-28T15:21:06;22.03;;;20.93;;
7613;SDS011;3848;42.016;23.098;2022-09-28T15:23:34;20.73;;;19.73;;
7613;SDS011;3848;42.016;23.098;2022-09-28T15:26:03;20.83;;;19.83;;
7613;SDS011;3848;42.016;23.098;2022-09-28T15:28:32;20.13;;;19.07;;
7613;SDS011;3848;42.016;23.098;2022-09-28T15:31:02;23.20;;;21.90;;